createdAt,value
2017-11-18T00:00:15.300Z,8.40
2017-11-18T00:02:42.966Z,8.37
2017-11-18T00:05:10.582Z,8.42
2017-11-18T00:07:38.200Z,8.49
2017-11-18T00:10:06.073Z,8.51
2017-11-18T00:12:33.692Z,8.53
2017-11-18T00:15:01.373Z,8.43
2017-11-18T00:17:29.049Z,8.41
2017-11-18T00:19:56.729Z,8.41
2017-11-18T00:22:24.404Z,8.35
2017-11-18T00:24:52.153Z,8.35
2017-11-18T00:27:19.836Z,8.36
2017-11-18T00:29:47.451Z,8.32
2017-11-18T00:32:15.120Z,8.35
2017-11-18T00:34:42.740Z,8.38
2017-11-18T00:37:10.411Z,8.39
2017-11-18T00:39:38.084Z,8.43
2017-11-18T00:42:05.765Z,8.44
2017-11-18T00:44:33.482Z,8.35
2017-11-18T00:47:01.178Z,8.38
2017-11-18T00:49:28.868Z,8.39
2017-11-18T00:51:56.490Z,8.35
2017-11-18T00:54:24.213Z,8.35
2017-11-18T00:56:51.832Z,8.32
2017-11-18T00:59:19.440Z,8.28
2017-11-18T01:01:47.189Z,8.29
2017-11-18T01:04:14.821Z,8.25
2017-11-18T01:06:42.440Z,8.30
2017-11-18T01:09:10.143Z,8.28
2017-11-18T01:11:38.524Z,8.34
2017-11-18T01:14:06.145Z,8.40
2017-11-18T01:16:33.871Z,8.33
2017-11-18T01:19:01.546Z,8.33
2017-11-18T01:21:29.220Z,8.26
2017-11-18T01:23:56.906Z,8.34
2017-11-18T01:26:24.525Z,8.36
2017-11-18T01:28:52.152Z,8.37
2017-11-18T01:31:19.820Z,8.38
2017-11-18T01:33:47.444Z,8.40
2017-11-18T01:36:15.134Z,8.44
2017-11-18T01:38:42.802Z,8.43
2017-11-18T01:41:10.514Z,8.44
2017-11-18T01:43:38.139Z,8.47
2017-11-18T01:46:05.882Z,8.52
2017-11-18T01:48:33.504Z,8.52
2017-11-18T01:51:01.185Z,8.47
2017-11-18T01:53:28.845Z,8.51
2017-11-18T01:55:56.469Z,8.52
2017-11-18T01:58:24.097Z,8.52
2017-11-18T02:00:51.776Z,8.50
2017-11-18T02:03:19.392Z,8.53
2017-11-18T02:05:47.011Z,8.48
2017-11-18T02:08:14.750Z,8.48
2017-11-18T02:10:42.431Z,8.45
2017-11-18T02:13:10.048Z,8.39
2017-11-18T02:15:37.732Z,8.36
2017-11-18T02:18:05.409Z,8.33
2017-11-18T02:20:33.110Z,8.36
2017-11-18T02:23:00.858Z,8.33
2017-11-18T02:25:28.484Z,8.32
2017-11-18T02:27:56.151Z,8.34
2017-11-18T02:30:23.964Z,8.33
2017-11-18T02:32:51.585Z,8.32
2017-11-18T02:35:19.221Z,8.31
2017-11-18T02:37:46.972Z,8.35
2017-11-18T02:40:14.649Z,8.32
2017-11-18T02:42:42.281Z,8.34
2017-11-18T02:45:10.014Z,8.35
2017-11-18T02:47:37.761Z,8.36
2017-11-18T02:50:05.442Z,8.36
2017-11-18T02:52:33.164Z,8.34
2017-11-18T02:55:00.804Z,8.34
2017-11-18T02:57:28.444Z,8.36
2017-11-18T02:59:56.205Z,8.42
2017-11-18T03:02:23.814Z,8.42
2017-11-18T03:04:51.432Z,8.42
2017-11-18T03:07:19.125Z,8.44
2017-11-18T03:09:46.796Z,8.39
2017-11-18T03:12:14.477Z,8.33
2017-11-18T03:14:42.210Z,8.23
2017-11-18T03:17:09.832Z,8.29
2017-11-18T03:19:37.505Z,8.33
2017-11-18T03:22:05.164Z,8.30
2017-11-18T03:24:32.779Z,8.26
2017-11-18T03:27:00.401Z,8.25
2017-11-18T03:29:28.130Z,8.30
2017-11-18T03:31:55.819Z,8.35
2017-11-18T03:34:23.440Z,8.29
2017-11-18T03:36:51.165Z,8.35
2017-11-18T03:39:18.785Z,8.30
2017-11-18T03:41:46.399Z,8.29
2017-11-18T03:44:14.180Z,8.26
2017-11-18T03:46:41.804Z,8.29
2017-11-18T03:49:09.428Z,8.28
2017-11-18T03:51:37.081Z,8.30
2017-11-18T03:54:04.740Z,8.34
2017-11-18T03:56:32.368Z,8.30
2017-11-18T03:59:00.047Z,8.28
2017-11-18T04:01:27.784Z,8.26
2017-11-18T04:03:55.408Z,8.29
2017-11-18T04:06:23.096Z,8.24
2017-11-18T04:08:50.801Z,8.30
2017-11-18T04:11:18.485Z,8.37
2017-11-18T04:13:46.212Z,8.37
2017-11-18T04:16:13.906Z,8.28
2017-11-18T04:18:41.552Z,8.33
2017-11-18T04:21:09.236Z,8.32
2017-11-18T04:23:36.854Z,8.35
2017-11-18T04:26:04.537Z,8.30
2017-11-18T04:28:32.228Z,8.17
2017-11-18T04:30:59.857Z,8.12
2017-11-18T04:33:27.550Z,8.11
2017-11-18T04:35:55.246Z,8.07
2017-11-18T04:38:22.929Z,8.09
2017-11-18T04:40:50.548Z,8.11
2017-11-18T04:43:18.280Z,8.10
2017-11-18T04:45:45.901Z,8.02
2017-11-18T04:48:13.517Z,8.00
2017-11-18T04:50:41.180Z,8.03
2017-11-18T04:53:08.862Z,7.99
2017-11-18T04:55:36.494Z,8.02
2017-11-18T04:58:04.233Z,8.05
2017-11-18T05:00:31.919Z,8.04
2017-11-18T05:02:59.592Z,8.04
2017-11-18T05:05:27.321Z,8.05
2017-11-18T05:07:55.013Z,8.07
2017-11-18T05:10:22.701Z,8.10
2017-11-18T05:12:50.382Z,8.07
2017-11-18T05:15:18.009Z,8.08
2017-11-18T05:17:45.689Z,8.02
2017-11-18T05:20:13.381Z,8.08
2017-11-18T05:22:40.996Z,8.06
2017-11-18T05:25:08.697Z,8.08
2017-11-18T05:27:36.442Z,8.04
2017-11-18T05:30:04.064Z,8.10
2017-11-18T05:32:31.693Z,8.19
2017-11-18T05:34:59.380Z,8.10
2017-11-18T05:37:27.038Z,8.14
2017-11-18T05:39:54.665Z,8.25
2017-11-18T05:42:22.414Z,8.30
2017-11-18T05:44:50.037Z,8.39
2017-11-18T05:47:17.648Z,8.27
2017-11-18T05:49:45.321Z,8.30
2017-11-18T05:52:12.941Z,8.33
2017-11-18T05:54:40.552Z,8.32
2017-11-18T05:57:08.231Z,8.34
2017-11-18T05:59:35.853Z,8.34
2017-11-18T06:02:03.568Z,8.44
2017-11-18T06:04:31.237Z,8.40
2017-11-18T06:06:58.868Z,8.36
2017-11-18T06:09:26.560Z,8.34
2017-11-18T06:11:54.233Z,8.30
2017-11-18T06:14:21.849Z,8.36
2017-11-18T06:16:49.537Z,8.43
2017-11-18T06:19:17.212Z,8.39
2017-11-18T06:21:44.824Z,8.42
2017-11-18T06:24:12.445Z,8.33
2017-11-18T06:26:40.168Z,8.39
2017-11-18T06:29:07.791Z,8.48
2017-11-18T06:31:35.401Z,8.40
2017-11-18T06:34:03.114Z,8.43
2017-11-18T06:36:30.736Z,8.44
2017-11-18T06:38:58.368Z,8.42
2017-11-18T06:41:26.126Z,8.43
2017-11-18T06:43:53.805Z,8.41
2017-11-18T06:46:21.502Z,8.44
2017-11-18T06:48:49.235Z,8.46
2017-11-18T06:51:16.866Z,8.62
2017-11-18T06:53:44.524Z,8.67
2017-11-18T06:56:12.250Z,8.59
2017-11-18T06:58:39.906Z,8.68
2017-11-18T07:01:07.536Z,8.81
2017-11-18T07:03:35.269Z,8.90
2017-11-18T07:06:02.889Z,8.84
2017-11-18T07:08:30.505Z,8.91
2017-11-18T07:10:58.226Z,8.93
2017-11-18T07:13:25.856Z,8.86
2017-11-18T07:15:53.484Z,8.96
2017-11-18T07:18:21.213Z,8.95
2017-11-18T07:20:48.885Z,9.05
2017-11-18T07:23:16.504Z,8.91
2017-11-18T07:25:44.164Z,8.96
2017-11-18T07:28:11.780Z,9.01
2017-11-18T07:30:39.452Z,9.19
2017-11-18T07:33:07.149Z,9.13
2017-11-18T07:35:34.774Z,9.12
2017-11-18T07:38:02.397Z,9.09
2017-11-18T07:40:30.073Z,9.32
2017-11-18T07:42:57.757Z,9.45
2017-11-18T07:45:25.389Z,9.53
2017-11-18T07:47:53.112Z,9.60
2017-11-18T07:50:20.739Z,9.66
2017-11-18T07:52:48.422Z,9.58
2017-11-18T07:55:16.153Z,9.63
2017-11-18T07:57:43.777Z,9.80
2017-11-18T08:00:11.461Z,9.66
2017-11-18T08:02:39.129Z,9.61
2017-11-18T08:05:06.792Z,9.64
2017-11-18T08:07:34.461Z,9.60
2017-11-18T08:10:02.168Z,9.73
2017-11-18T08:12:29.794Z,9.81
2017-11-18T08:14:57.421Z,9.85
2017-11-18T08:17:25.096Z,9.90
2017-11-18T08:19:52.709Z,9.68
2017-11-18T08:22:20.381Z,9.82
2017-11-18T08:24:48.045Z,9.82
2017-11-18T08:27:15.741Z,9.63
2017-11-18T08:29:43.357Z,9.53
2017-11-18T08:32:11.044Z,9.68
2017-11-18T08:34:38.717Z,9.82
2017-11-18T08:37:06.393Z,9.83
2017-11-18T08:39:34.113Z,9.84
2017-11-18T08:42:01.745Z,9.68
2017-11-18T08:44:29.365Z,9.69
2017-11-18T08:46:57.133Z,9.50
2017-11-18T08:49:24.764Z,9.59
2017-11-18T08:51:52.466Z,9.60
2017-11-18T08:54:20.132Z,9.57
2017-11-18T08:56:47.744Z,9.56
2017-11-18T08:59:15.377Z,9.61
2017-11-18T09:01:43.055Z,9.58
2017-11-18T09:04:10.675Z,9.53
2017-11-18T09:06:38.369Z,9.45
2017-11-18T09:09:06.033Z,9.45
2017-11-18T09:11:33.713Z,9.49
2017-11-18T09:14:01.332Z,9.52
2017-11-18T09:16:29.058Z,9.58
2017-11-18T09:18:56.673Z,9.66
2017-11-18T09:21:24.348Z,9.50
2017-11-18T09:23:52.017Z,9.41
2017-11-18T09:26:19.698Z,9.48
2017-11-18T09:28:47.316Z,9.47
2017-11-18T09:31:14.977Z,9.52
2017-11-18T09:33:42.597Z,9.43
2017-11-18T09:36:10.288Z,9.55
2017-11-18T09:38:37.965Z,9.66
2017-11-18T09:41:05.645Z,9.65
2017-11-18T09:43:33.320Z,9.61
2017-11-18T09:46:01.050Z,9.59
2017-11-18T09:48:28.671Z,9.80
2017-11-18T09:50:56.297Z,9.81
2017-11-18T09:53:23.957Z,9.68
2017-11-18T09:55:51.577Z,9.68
2017-11-18T09:58:19.214Z,9.46
2017-11-18T10:00:46.900Z,9.45
2017-11-18T10:03:14.527Z,9.55
2017-11-18T10:05:42.169Z,9.57
2017-11-18T10:08:09.857Z,9.68
2017-11-18T10:10:38.314Z,9.68
2017-11-18T10:13:05.992Z,9.72
2017-11-18T10:15:33.675Z,9.71
2017-11-18T10:18:01.304Z,9.76
2017-11-18T10:20:28.920Z,9.69
2017-11-18T10:22:56.593Z,9.71
2017-11-18T10:25:24.220Z,9.58
2017-11-18T10:27:51.848Z,9.60
2017-11-18T10:30:19.569Z,9.68
2017-11-18T10:32:47.198Z,9.75
2017-11-18T10:35:14.851Z,9.79
2017-11-18T10:37:42.593Z,9.81
2017-11-18T10:40:10.215Z,9.65
2017-11-18T10:42:37.901Z,9.62
2017-11-18T10:45:05.567Z,9.53
2017-11-18T10:47:33.187Z,9.53
2017-11-18T10:50:00.814Z,9.46
2017-11-18T10:52:28.491Z,9.40
2017-11-18T10:54:56.136Z,9.42
2017-11-18T10:57:23.838Z,9.50
2017-11-18T10:59:51.516Z,9.53
2017-11-18T11:02:19.212Z,9.51
2017-11-18T11:04:46.899Z,9.50
2017-11-18T11:07:14.583Z,9.51
2017-11-18T11:09:42.281Z,9.59
2017-11-18T11:12:09.917Z,9.58
2017-11-18T11:14:37.605Z,9.59
2017-11-18T11:17:05.255Z,9.55
2017-11-18T11:19:32.876Z,9.58
2017-11-18T11:22:00.608Z,9.46
2017-11-18T11:24:28.355Z,9.48
2017-11-18T11:26:56.049Z,9.49
2017-11-18T11:29:23.777Z,9.45
2017-11-18T11:31:51.425Z,9.47
2017-11-18T11:34:19.062Z,9.53
2017-11-18T11:36:46.793Z,9.56
2017-11-18T11:39:14.441Z,9.58
2017-11-18T11:41:42.122Z,9.56
2017-11-18T11:44:09.789Z,9.61
2017-11-18T11:46:37.428Z,9.64
2017-11-18T11:49:05.113Z,9.64
2017-11-18T11:51:32.797Z,9.62
2017-11-18T11:54:00.428Z,9.70
2017-11-18T11:56:28.163Z,9.67
2017-11-18T11:58:55.905Z,9.66
2017-11-18T12:01:23.577Z,9.63
2017-11-18T12:03:51.262Z,9.61
2017-11-18T12:06:18.949Z,9.46
2017-11-18T12:08:46.629Z,9.34
2017-11-18T12:11:14.319Z,9.43
2017-11-18T12:13:41.997Z,9.42
2017-11-18T12:16:09.623Z,9.50
2017-11-18T12:18:37.241Z,9.57
2017-11-18T12:21:04.908Z,9.50
2017-11-18T12:23:32.580Z,9.56
2017-11-18T12:26:00.188Z,9.48
2017-11-18T12:28:27.849Z,9.58
2017-11-18T12:30:55.466Z,9.66
2017-11-18T12:33:23.080Z,9.79
2017-11-18T12:35:50.849Z,9.85
2017-11-18T12:38:18.516Z,9.88
2017-11-18T12:40:46.161Z,9.90
2017-11-18T12:43:13.868Z,9.78
2017-11-18T12:45:41.505Z,9.76
2017-11-18T12:48:09.129Z,9.80
2017-11-18T12:50:36.870Z,9.75
2017-11-18T12:53:04.545Z,9.65
2017-11-18T12:55:32.229Z,9.51
2017-11-18T12:57:59.880Z,9.57
2017-11-18T13:00:27.501Z,9.63
2017-11-18T13:02:55.177Z,9.69
2017-11-18T13:05:22.863Z,9.76
2017-11-18T13:07:50.492Z,9.78
2017-11-18T13:10:18.104Z,9.77
2017-11-18T13:12:45.772Z,9.74
2017-11-18T13:15:13.501Z,9.85
2017-11-18T13:17:41.160Z,9.78
2017-11-18T13:20:08.825Z,9.73
2017-11-18T13:22:36.506Z,9.63
2017-11-18T13:25:04.125Z,9.65
2017-11-18T13:27:31.913Z,9.57
2017-11-18T13:29:59.568Z,9.51
2017-11-18T13:32:27.200Z,9.48
2017-11-18T13:34:54.882Z,9.47
2017-11-18T13:37:22.505Z,9.49
2017-11-18T13:39:51.060Z,9.50
2017-11-18T13:42:18.739Z,9.48
2017-11-18T13:44:46.352Z,9.50
2017-11-18T13:47:13.963Z,9.53
2017-11-18T13:49:41.636Z,9.59
2017-11-18T13:52:09.253Z,9.55
2017-11-18T13:54:36.931Z,9.53
2017-11-18T13:57:04.620Z,9.53
2017-11-18T13:59:32.270Z,9.57
2017-11-18T14:01:59.889Z,9.54
2017-11-18T14:04:27.637Z,9.53
2017-11-18T14:06:55.264Z,9.53
2017-11-18T14:09:22.880Z,9.56
2017-11-18T14:11:50.545Z,9.53
2017-11-18T14:14:18.190Z,9.51
2017-11-18T14:16:45.889Z,9.46
2017-11-18T14:19:13.579Z,9.47
2017-11-18T14:21:41.214Z,9.53
2017-11-18T14:24:08.833Z,9.44
2017-11-18T14:26:36.515Z,9.45
2017-11-18T14:29:04.147Z,9.43
2017-11-18T14:31:31.761Z,9.45
2017-11-18T14:33:59.479Z,9.41
2017-11-18T14:36:27.152Z,9.36
2017-11-18T14:38:54.769Z,9.44
2017-11-18T14:41:22.456Z,9.44
2017-11-18T14:43:50.147Z,9.39
2017-11-18T14:46:17.888Z,9.35
2017-11-18T14:48:45.557Z,9.30
2017-11-18T14:51:13.233Z,9.25
2017-11-18T14:53:40.907Z,9.17
2017-11-18T14:56:08.709Z,9.22
2017-11-18T14:58:36.392Z,9.25
2017-11-18T15:01:04.229Z,9.31
2017-11-18T15:03:32.032Z,9.32
2017-11-18T15:05:59.718Z,9.32
2017-11-18T15:08:27.411Z,9.37
2017-11-18T15:10:55.168Z,9.40
2017-11-18T15:13:22.841Z,9.44
2017-11-18T15:15:58.125Z,9.43
2017-11-18T15:18:28.253Z,9.45
2017-11-18T15:21:01.594Z,9.40
2017-11-18T15:26:47.737Z,9.42
2017-11-18T15:29:21.083Z,9.45
2017-11-18T15:31:57.430Z,9.39
2017-11-18T15:34:30.696Z,9.29
2017-11-18T15:37:07.069Z,9.33
2017-11-18T15:39:34.799Z,9.37
2017-11-18T15:42:02.526Z,9.37
2017-11-18T15:44:32.239Z,9.36
2017-11-18T15:50:06.477Z,9.41
2017-11-18T15:52:36.574Z,9.44
2017-11-18T15:55:04.262Z,9.40
2017-11-18T15:57:32.025Z,9.37
2017-11-18T15:59:59.733Z,9.35
2017-11-18T16:02:37.421Z,9.31
2017-11-18T16:05:05.994Z,9.31
2017-11-18T16:07:33.676Z,9.39
2017-11-18T16:10:01.403Z,9.38
2017-11-18T16:12:29.063Z,9.37
2017-11-18T16:14:56.703Z,9.36
2017-11-18T16:17:24.409Z,9.38
2017-11-18T16:19:52.056Z,9.41
2017-11-18T16:22:19.744Z,9.38
2017-11-18T16:24:47.878Z,9.35
2017-11-18T16:27:15.552Z,9.35
2017-11-18T16:29:43.233Z,9.38
2017-11-18T16:32:11.217Z,9.34
2017-11-18T16:34:38.837Z,9.26
2017-11-18T16:37:06.516Z,9.25
2017-11-18T16:39:34.238Z,9.20
2017-11-18T16:42:01.923Z,9.19
2017-11-18T16:44:29.771Z,9.21
2017-11-18T16:46:57.535Z,9.24
2017-11-18T16:49:25.222Z,9.26
2017-11-18T16:51:53.017Z,9.17
2017-11-18T16:54:20.812Z,9.20
2017-11-18T16:56:48.510Z,9.22
2017-11-18T16:59:16.231Z,9.21
2017-11-18T17:01:44.105Z,9.22
2017-11-18T17:04:12.260Z,9.23
2017-11-18T17:06:40.038Z,9.29
2017-11-18T17:09:08.711Z,9.28
2017-11-18T17:11:36.645Z,9.29
2017-11-18T17:14:04.368Z,9.26
2017-11-18T17:16:32.118Z,9.33
2017-11-18T17:18:59.801Z,9.39
2017-11-18T17:21:27.439Z,9.40
2017-11-18T17:23:55.120Z,9.44
2017-11-18T17:26:22.756Z,9.44
2017-11-18T17:28:50.392Z,9.42
2017-11-18T17:31:18.193Z,9.37
2017-11-18T17:33:46.025Z,9.36
2017-11-18T17:36:13.824Z,9.41
2017-11-18T17:38:41.680Z,9.45
2017-11-18T17:41:09.408Z,9.47
2017-11-18T17:43:37.054Z,9.49
2017-11-18T17:46:04.790Z,9.47
2017-11-18T17:48:32.458Z,9.42
2017-11-18T17:51:00.089Z,9.47
2017-11-18T17:53:27.828Z,9.46
2017-11-18T17:55:55.592Z,9.50
2017-11-18T17:58:23.246Z,9.51
2017-11-18T18:00:50.942Z,9.49
2017-11-18T18:03:18.643Z,9.53
2017-11-18T18:05:46.349Z,9.56
2017-11-18T18:08:14.092Z,9.54
2017-11-18T18:10:41.721Z,9.56
2017-11-18T18:13:09.429Z,9.51
2017-11-18T18:15:37.149Z,9.45
2017-11-18T18:18:04.768Z,9.45
2017-11-18T18:20:32.393Z,9.49
2017-11-18T18:23:00.128Z,9.51
2017-11-18T18:25:27.748Z,9.52
2017-11-18T18:27:55.437Z,9.55
2017-11-18T18:30:23.202Z,9.56
2017-11-18T18:32:50.828Z,9.53
2017-11-18T18:35:18.650Z,9.57
2017-11-18T18:37:46.320Z,9.56
2017-11-18T18:40:13.942Z,9.49
2017-11-18T18:42:41.564Z,9.47
2017-11-18T18:45:09.265Z,9.50
2017-11-18T18:47:36.884Z,9.46
2017-11-18T18:50:04.579Z,9.46
2017-11-18T18:52:32.249Z,9.44
2017-11-18T18:54:59.888Z,9.41
2017-11-18T18:57:27.571Z,9.49
2017-11-18T18:59:55.309Z,9.54
2017-11-18T19:02:22.933Z,9.52
2017-11-18T19:04:50.577Z,9.50
2017-11-18T19:07:18.243Z,9.55
2017-11-18T19:09:45.946Z,9.59
2017-11-18T19:12:13.560Z,9.57
2017-11-18T19:14:41.285Z,9.57
2017-11-18T19:17:08.925Z,9.58
2017-11-18T19:19:36.570Z,9.62
2017-11-18T19:22:04.312Z,9.64
2017-11-18T19:24:32.001Z,9.68
2017-11-18T19:26:59.623Z,9.70
2017-11-18T19:29:27.288Z,9.65
2017-11-18T19:31:54.909Z,9.53
2017-11-18T19:34:22.603Z,9.53
2017-11-18T19:36:50.281Z,9.57
2017-11-18T19:39:18.252Z,9.53
2017-11-18T19:41:45.863Z,9.53
2017-11-18T19:44:13.577Z,9.51
2017-11-18T19:46:41.180Z,9.53
2017-11-18T19:49:08.803Z,9.54
2017-11-18T19:51:36.539Z,9.57
2017-11-18T19:54:04.173Z,9.58
2017-11-18T19:56:31.850Z,9.58
2017-11-18T19:58:59.564Z,9.60
2017-11-18T20:01:27.196Z,9.56
2017-11-18T20:03:54.885Z,9.52
2017-11-18T20:06:22.578Z,9.47
2017-11-18T20:08:50.302Z,9.47
2017-11-18T20:11:17.925Z,9.45
2017-11-18T20:13:45.599Z,9.45
2017-11-18T20:16:13.293Z,9.40
2017-11-18T20:18:40.924Z,9.46
2017-11-18T20:21:08.603Z,9.49
2017-11-18T20:23:36.242Z,9.53
2017-11-18T20:26:03.868Z,9.50
2017-11-18T20:28:31.610Z,9.50
2017-11-18T20:30:59.224Z,9.50
2017-11-18T20:33:26.889Z,9.52
2017-11-18T20:35:54.553Z,9.51
2017-11-18T20:38:22.171Z,9.51
2017-11-18T20:40:49.857Z,9.51
2017-11-18T20:43:17.524Z,9.58
2017-11-18T20:45:45.200Z,9.61
2017-11-18T20:48:12.827Z,9.60
2017-11-18T20:50:40.492Z,9.59
2017-11-18T20:53:08.168Z,9.58
2017-11-18T20:55:35.786Z,9.60
2017-11-18T20:58:03.477Z,9.56
2017-11-18T21:00:31.166Z,9.58
2017-11-18T21:02:58.782Z,9.58
2017-11-18T21:05:26.525Z,9.59
2017-11-18T21:07:54.129Z,9.53
2017-11-18T21:10:21.813Z,9.55
2017-11-18T21:12:49.552Z,9.57
2017-11-18T21:15:17.224Z,9.51
2017-11-18T21:17:44.836Z,9.53
2017-11-18T21:20:12.524Z,9.51
2017-11-18T21:22:40.144Z,9.58
2017-11-18T21:25:07.766Z,9.55
2017-11-18T21:27:35.438Z,9.55
2017-11-18T21:30:03.069Z,9.57
2017-11-18T21:32:30.750Z,9.54
2017-11-18T21:34:58.456Z,9.54
2017-11-18T21:37:26.158Z,9.53
2017-11-18T21:39:53.791Z,9.60
2017-11-18T21:42:21.476Z,9.57
2017-11-18T21:44:49.113Z,9.63
2017-11-18T21:47:16.731Z,9.62
2017-11-18T21:49:44.380Z,9.67
2017-11-18T21:52:11.997Z,9.66
2017-11-18T21:54:39.678Z,9.63
2017-11-18T21:57:07.363Z,9.58
2017-11-18T21:59:34.977Z,9.54
2017-11-18T22:02:02.604Z,9.55
2017-11-18T22:04:30.333Z,9.54
2017-11-18T22:06:58.002Z,9.53
2017-11-18T22:09:25.620Z,9.54
2017-11-18T22:11:53.295Z,9.52
2017-11-18T22:14:20.914Z,9.45
2017-11-18T22:16:48.520Z,9.50
2017-11-18T22:19:16.189Z,9.44
2017-11-18T22:21:43.817Z,9.44
2017-11-18T22:24:11.513Z,9.50
2017-11-18T22:26:39.173Z,9.49
2017-11-18T22:29:06.796Z,9.47
2017-11-18T22:31:34.473Z,9.41
2017-11-18T22:34:02.188Z,9.39
2017-11-18T22:36:29.813Z,9.41
2017-11-18T22:38:57.486Z,9.40
2017-11-18T22:41:25.170Z,9.40
2017-11-18T22:43:52.784Z,9.45
2017-11-18T22:46:20.395Z,9.46
2017-11-18T22:48:48.058Z,9.51
2017-11-18T22:51:15.687Z,9.50
2017-11-18T22:53:43.355Z,9.48
2017-11-18T22:56:11.012Z,9.53
2017-11-18T22:58:38.636Z,9.50
2017-11-18T23:01:06.312Z,9.43
2017-11-18T23:03:34.001Z,9.42
2017-11-18T23:06:01.624Z,9.40
2017-11-18T23:08:29.298Z,9.30
2017-11-18T23:10:56.971Z,9.34
2017-11-18T23:13:24.581Z,9.34
2017-11-18T23:15:52.191Z,9.26
2017-11-18T23:18:19.908Z,9.31
2017-11-18T23:20:47.528Z,9.34
2017-11-18T23:23:15.150Z,9.34
2017-11-18T23:25:42.817Z,9.28
2017-11-18T23:28:10.432Z,9.33
2017-11-18T23:30:38.106Z,9.30
2017-11-18T23:33:05.796Z,9.30
2017-11-18T23:35:33.393Z,9.33
2017-11-18T23:38:01.004Z,9.32
2017-11-18T23:40:28.740Z,9.26
2017-11-18T23:42:56.344Z,9.20
2017-11-18T23:45:24.005Z,9.20
2017-11-18T23:47:51.669Z,9.20
2017-11-18T23:50:19.341Z,9.07
2017-11-18T23:52:47.001Z,9.12
2017-11-18T23:55:14.664Z,9.14
2017-11-18T23:57:42.276Z,9.10
